sensor_id;sensor_type;location;lat;lon;timestamp;noise_LAeq;noise_LA_min;noise_LA_max;noise_LA01;noise_LA95
46749;Laerm;33775;47.992;11.864;2023-07-20T00:00:56;39.04;35.66;40.62;;
46749;Laerm;33775;47.992;11.864;2023-07-20T00:03:21;39.04;35.36;41.14;;
46749;Laerm;33775;47.992;11.864;2023-07-20T00:05:50;39.13;35.04;40.71;;
46749;Laerm;33775;47.992;11.864;2023-07-20T00:08:16;39.04;35.04;40.62;;
46749;Laerm;33775;47.992;11.864;2023-07-20T00:10:42;39.10;36.20;40.71;;
46749;Laerm;33775;47.992;11.864;2023-07-20T00:13:07;39.11;35.94;40.71;;
46749;Laerm;33775;47.992;11.864;2023-07-20T00:15:32;39.11;36.20;40.71;;
46749;Laerm;33775;47.992;11.864;2023-07-20T00:17:58;39.03;35.36;40.62;;
46749;Laerm;33775;47.992;11.864;2023-07-20T00:20:23;38.94;35.36;40.53;;
46749;Laerm;33775;47.992;11.864;2023-07-20T00:22:49;38.97;33.44;40.53;;
46749;Laerm;33775;47.992;11.864;2023-07-20T00:25:16;38.74;33.90;40.62;;
46749;Laerm;33775;47.992;11.864;2023-07-20T00:27:41;38.71;35.04;40.62;;
46749;Laerm;33775;47.992;11.864;2023-07-20T00:30:06;38.87;35.66;40.98;;
46749;Laerm;33775;47.992;11.864;2023-07-20T00:32:32;38.75;33.44;40.71;;
46749;Laerm;33775;47.992;11.864;2023-07-20T00:34:57;38.93;34.69;40.71;;
46749;Laerm;33775;47.992;11.864;2023-07-20T00:37:22;39.23;36.69;41.06;;
46749;Laerm;33775;47.992;11.864;2023-07-20T00:39:47;39.10;37.12;40.71;;
46749;Laerm;33775;47.992;11.864;2023-07-20T00:42:12;39.04;36.69;40.62;;
46749;Laerm;33775;47.992;11.864;2023-07-20T00:44:37;38.93;36.45;40.33;;
46749;Laerm;33775;47.992;11.864;2023-07-20T00:47:03;38.90;36.45;40.33;;
46749;Laerm;33775;47.992;11.864;2023-07-20T00:49:28;38.89;36.45;40.62;;
46749;Laerm;33775;47.992;11.864;2023-07-20T00:51:53;38.86;35.66;40.33;;
46749;Laerm;33775;47.992;11.864;2023-07-20T00:54:19;38.85;35.94;40.62;;
46749;Laerm;33775;47.992;11.864;2023-07-20T00:56:44;38.87;36.45;40.43;;
46749;Laerm;33775;47.992;11.864;2023-07-20T00:59:09;38.59;35.04;40.33;;
46749;Laerm;33775;47.992;11.864;2023-07-20T01:01:34;38.29;35.04;40.03;;
46749;Laerm;33775;47.992;11.864;2023-07-20T01:04:00;38.08;33.90;39.92;;
46749;Laerm;33775;47.992;11.864;2023-07-20T01:06:34;37.78;32.35;40.13;;
46749;Laerm;33775;47.992;11.864;2023-07-20T01:09:02;38.10;32.35;39.81;;
46749;Laerm;33775;47.992;11.864;2023-07-20T01:11:54;38.22;33.90;40.23;;
46749;Laerm;33775;47.992;11.864;2023-07-20T01:14:16;38.30;33.90;40.03;;
46749;Laerm;33775;47.992;11.864;2023-07-20T01:16:41;38.29;35.04;40.03;;
46749;Laerm;33775;47.992;11.864;2023-07-20T01:19:07;38.61;33.90;61.00;;
46749;Laerm;33775;47.992;11.864;2023-07-20T01:21:38;37.98;32.93;39.92;;
46749;Laerm;33775;47.992;11.864;2023-07-20T01:24:10;37.67;32.35;40.23;;
46749;Laerm;33775;47.992;11.864;2023-07-20T01:26:51;37.52;30.89;39.58;;
46749;Laerm;33775;47.992;11.864;2023-07-20T01:31:53;37.31;30.89;39.46;;
46749;Laerm;33775;47.992;11.864;2023-07-20T01:34:19;37.25;32.35;39.46;;
46749;Laerm;33775;47.992;11.864;2023-07-20T01:36:47;37.24;32.35;39.70;;
46749;Laerm;33775;47.992;11.864;2023-07-20T01:39:14;37.56;32.35;39.34;;
46749;Laerm;33775;47.992;11.864;2023-07-20T01:41:40;37.81;32.93;40.13;;
46749;Laerm;33775;47.992;11.864;2023-07-20T01:44:06;38.11;31.68;40.03;;
46749;Laerm;33775;47.992;11.864;2023-07-20T01:46:31;38.24;32.35;40.03;;
46749;Laerm;33775;47.992;11.864;2023-07-20T01:48:57;38.18;32.58;40.27;;
46749;Laerm;33775;47.992;11.864;2023-07-20T01:51:22;38.25;33.44;40.33;;
46749;Laerm;33775;47.992;11.864;2023-07-20T01:53:47;38.26;33.44;40.03;;
46749;Laerm;33775;47.992;11.864;2023-07-20T01:56:12;38.30;33.90;40.13;;
46749;Laerm;33775;47.992;11.864;2023-07-20T01:58:38;38.38;34.31;40.27;;
46749;Laerm;33775;47.992;11.864;2023-07-20T02:01:03;38.47;34.31;40.43;;
46749;Laerm;33775;47.992;11.864;2023-07-20T02:03:29;38.09;33.90;40.03;;
46749;Laerm;33775;47.992;11.864;2023-07-20T02:05:54;37.58;32.35;39.58;;
46749;Laerm;33775;47.992;11.864;2023-07-20T02:08:19;37.45;29.92;39.70;;
46749;Laerm;33775;47.992;11.864;2023-07-20T02:10:45;37.50;30.89;39.46;;
46749;Laerm;33775;47.992;11.864;2023-07-20T02:13:10;37.61;32.35;39.58;;
46749;Laerm;33775;47.992;11.864;2023-07-20T02:15:35;37.60;33.44;39.70;;
46749;Laerm;33775;47.992;11.864;2023-07-20T02:18:00;37.66;31.68;39.81;;
46749;Laerm;33775;47.992;11.864;2023-07-20T02:20:26;37.60;32.35;39.58;;
46749;Laerm;33775;47.992;11.864;2023-07-20T02:22:52;37.67;32.35;39.70;;
46749;Laerm;33775;47.992;11.864;2023-07-20T02:25:17;37.67;32.35;39.70;;
46749;Laerm;33775;47.992;11.864;2023-07-20T02:27:42;37.38;29.92;39.58;;
46749;Laerm;33775;47.992;11.864;2023-07-20T02:30:08;37.49;30.89;39.46;;
46749;Laerm;33775;47.992;11.864;2023-07-20T02:32:34;37.43;32.35;39.35;;
46749;Laerm;33775;47.992;11.864;2023-07-20T02:34:59;37.25;32.35;39.70;;
46749;Laerm;33775;47.992;11.864;2023-07-20T02:37:24;37.19;31.68;39.81;;
46749;Laerm;33775;47.992;11.864;2023-07-20T02:39:50;37.24;32.35;39.70;;
46749;Laerm;33775;47.992;11.864;2023-07-20T02:42:15;37.42;30.89;39.46;;
46749;Laerm;33775;47.992;11.864;2023-07-20T02:44:40;37.77;32.93;40.03;;
46749;Laerm;33775;47.992;11.864;2023-07-20T02:47:05;37.92;32.35;40.03;;
46749;Laerm;33775;47.992;11.864;2023-07-20T02:49:31;38.10;32.35;39.99;;
46749;Laerm;33775;47.992;11.864;2023-07-20T02:51:56;38.04;31.68;39.92;;
46749;Laerm;33775;47.992;11.864;2023-07-20T02:54:21;37.94;34.31;40.13;;
46749;Laerm;33775;47.992;11.864;2023-07-20T02:56:46;37.87;32.35;39.81;;
46749;Laerm;33775;47.992;11.864;2023-07-20T02:59:12;37.64;33.44;39.81;;
46749;Laerm;33775;47.992;11.864;2023-07-20T03:01:37;37.78;33.44;39.70;;
46749;Laerm;33775;47.992;11.864;2023-07-20T03:04:02;38.01;30.89;39.81;;
46749;Laerm;33775;47.992;11.864;2023-07-20T03:06:27;38.11;30.89;39.92;;
46749;Laerm;33775;47.992;11.864;2023-07-20T03:08:53;38.12;33.90;40.13;;
46749;Laerm;33775;47.992;11.864;2023-07-20T03:11:18;38.24;34.31;40.18;;
46749;Laerm;33775;47.992;11.864;2023-07-20T03:13:44;38.26;33.44;40.13;;
46749;Laerm;33775;47.992;11.864;2023-07-20T03:16:13;38.02;33.90;39.92;;
46749;Laerm;33775;47.992;11.864;2023-07-20T03:18:40;37.93;32.93;39.81;;
46749;Laerm;33775;47.992;11.864;2023-07-20T03:21:06;37.59;32.93;39.70;;
46749;Laerm;33775;47.992;11.864;2023-07-20T03:23:31;37.18;32.35;39.58;;
46749;Laerm;33775;47.992;11.864;2023-07-20T03:25:56;37.10;30.89;39.46;;
46749;Laerm;33775;47.992;11.864;2023-07-20T03:28:21;37.20;32.35;39.92;;
46749;Laerm;33775;47.992;11.864;2023-07-20T03:30:52;37.16;29.92;39.81;;
46749;Laerm;33775;47.992;11.864;2023-07-20T03:33:17;37.23;31.68;39.46;;
46749;Laerm;33775;47.992;11.864;2023-07-20T03:35:42;37.34;31.68;39.70;;
46749;Laerm;33775;47.992;11.864;2023-07-20T03:38:08;37.15;31.68;39.70;;
46749;Laerm;33775;47.992;11.864;2023-07-20T03:40:33;37.00;29.92;39.46;;
46749;Laerm;33775;47.992;11.864;2023-07-20T03:42:58;37.00;31.68;45.72;;
46749;Laerm;33775;47.992;11.864;2023-07-20T03:45:23;37.07;31.68;47.30;;
46749;Laerm;33775;47.992;11.864;2023-07-20T03:47:49;36.96;31.68;39.58;;
46749;Laerm;33775;47.992;11.864;2023-07-20T03:50:14;36.91;31.33;39.46;;
46749;Laerm;33775;47.992;11.864;2023-07-20T03:52:39;36.88;31.68;39.58;;
46749;Laerm;33775;47.992;11.864;2023-07-20T03:55:04;36.87;32.35;39.70;;
46749;Laerm;33775;47.992;11.864;2023-07-20T03:57:30;36.85;31.68;39.78;;
46749;Laerm;33775;47.992;11.864;2023-07-20T03:59:57;36.95;31.33;39.70;;
46749;Laerm;33775;47.992;11.864;2023-07-20T04:02:22;36.99;30.89;39.46;;
46749;Laerm;33775;47.992;11.864;2023-07-20T04:04:47;37.05;30.89;39.58;;
46749;Laerm;33775;47.992;11.864;2023-07-20T04:07:12;37.16;31.68;39.81;;
46749;Laerm;33775;47.992;11.864;2023-07-20T04:09:38;37.24;30.89;39.58;;
46749;Laerm;33775;47.992;11.864;2023-07-20T04:12:03;37.31;32.35;40.13;;
46749;Laerm;33775;47.992;11.864;2023-07-20T04:14:28;37.20;31.68;39.81;;
46749;Laerm;33775;47.992;11.864;2023-07-20T04:16:53;37.12;31.68;39.46;;
46749;Laerm;33775;47.992;11.864;2023-07-20T04:19:19;37.31;30.89;39.70;;
46749;Laerm;33775;47.992;11.864;2023-07-20T04:21:44;37.29;31.68;39.57;;
46749;Laerm;33775;47.992;11.864;2023-07-20T04:24:09;37.19;31.68;39.58;;
46749;Laerm;33775;47.992;11.864;2023-07-20T04:26:34;37.13;31.68;39.81;;
46749;Laerm;33775;47.992;11.864;2023-07-20T04:29:00;37.13;31.68;39.46;;
46749;Laerm;33775;47.992;11.864;2023-07-20T04:31:26;37.09;31.68;39.46;;
46749;Laerm;33775;47.992;11.864;2023-07-20T04:33:51;37.00;30.89;39.46;;
46749;Laerm;33775;47.992;11.864;2023-07-20T04:36:16;37.00;32.35;39.81;;
46749;Laerm;33775;47.992;11.864;2023-07-20T04:38:44;37.13;31.68;39.58;;
46749;Laerm;33775;47.992;11.864;2023-07-20T04:41:09;37.20;30.89;39.46;;
46749;Laerm;33775;47.992;11.864;2023-07-20T04:43:34;37.24;29.92;39.34;;
46749;Laerm;33775;47.992;11.864;2023-07-20T04:46:00;37.23;32.00;39.70;;
46749;Laerm;33775;47.992;11.864;2023-07-20T04:48:25;37.09;29.92;39.58;;
46749;Laerm;33775;47.992;11.864;2023-07-20T04:50:50;37.09;29.92;39.21;;
46749;Laerm;33775;47.992;11.864;2023-07-20T04:53:15;36.98;31.68;39.70;;
46749;Laerm;33775;47.992;11.864;2023-07-20T04:55:46;37.01;30.89;39.70;;
46749;Laerm;33775;47.992;11.864;2023-07-20T04:58:12;37.11;29.92;39.46;;
46749;Laerm;33775;47.992;11.864;2023-07-20T05:00:37;37.30;32.35;39.58;;
46749;Laerm;33775;47.992;11.864;2023-07-20T05:03:03;37.17;31.68;39.46;;
46749;Laerm;33775;47.992;11.864;2023-07-20T05:05:30;37.09;31.68;39.58;;
46749;Laerm;33775;47.992;11.864;2023-07-20T05:07:55;37.19;31.68;39.34;;
46749;Laerm;33775;47.992;11.864;2023-07-20T05:10:20;37.24;31.68;39.81;;
46749;Laerm;33775;47.992;11.864;2023-07-20T05:12:45;37.17;32.35;39.70;;
46749;Laerm;33775;47.992;11.864;2023-07-20T05:15:11;37.04;30.89;39.58;;
46749;Laerm;33775;47.992;11.864;2023-07-20T05:17:36;36.95;30.89;39.92;;
46749;Laerm;33775;47.992;11.864;2023-07-20T05:20:01;36.87;28.67;39.46;;
46749;Laerm;33775;47.992;11.864;2023-07-20T05:22:28;36.88;32.35;39.46;;
46749;Laerm;33775;47.992;11.864;2023-07-20T05:24:54;36.90;28.67;39.46;;
46749;Laerm;33775;47.992;11.864;2023-07-20T05:27:19;36.87;31.68;39.46;;
46749;Laerm;33775;47.992;11.864;2023-07-20T05:29:44;36.85;32.35;39.70;;
46749;Laerm;33775;47.992;11.864;2023-07-20T05:32:10;36.86;30.89;39.58;;
46749;Laerm;33775;47.992;11.864;2023-07-20T05:34:35;36.86;30.89;39.46;;
46749;Laerm;33775;47.992;11.864;2023-07-20T05:37:00;36.83;30.89;39.34;;
46749;Laerm;33775;47.992;11.864;2023-07-20T05:39:25;36.87;30.89;39.46;;
46749;Laerm;33775;47.992;11.864;2023-07-20T05:41:51;36.89;30.89;40.03;;
46749;Laerm;33775;47.992;11.864;2023-07-20T05:44:16;36.86;31.68;39.46;;
46749;Laerm;33775;47.992;11.864;2023-07-20T05:46:41;36.89;31.68;39.58;;
46749;Laerm;33775;47.992;11.864;2023-07-20T05:49:06;36.90;30.89;39.70;;
46749;Laerm;33775;47.992;11.864;2023-07-20T05:51:32;36.94;31.68;39.89;;
46749;Laerm;33775;47.992;11.864;2023-07-20T05:53:57;36.93;32.35;39.58;;
46749;Laerm;33775;47.992;11.864;2023-07-20T05:56:22;36.93;31.68;39.58;;
46749;Laerm;33775;47.992;11.864;2023-07-20T05:58:47;36.93;29.92;39.70;;
46749;Laerm;33775;47.992;11.864;2023-07-20T06:01:12;36.91;32.93;39.58;;
46749;Laerm;33775;47.992;11.864;2023-07-20T06:03:37;36.95;31.68;39.70;;
46749;Laerm;33775;47.992;11.864;2023-07-20T06:06:03;36.94;32.93;39.58;;
46749;Laerm;33775;47.992;11.864;2023-07-20T06:08:29;36.96;32.35;40.03;;
46749;Laerm;33775;47.992;11.864;2023-07-20T06:10:54;37.00;32.93;39.92;;
46749;Laerm;33775;47.992;11.864;2023-07-20T06:13:20;36.99;31.68;40.03;;
46749;Laerm;33775;47.992;11.864;2023-07-20T06:15:45;36.97;31.68;39.58;;
46749;Laerm;33775;47.992;11.864;2023-07-20T06:18:10;36.99;32.35;40.13;;
46749;Laerm;33775;47.992;11.864;2023-07-20T06:20:35;37.06;30.89;39.92;;
46749;Laerm;33775;47.992;11.864;2023-07-20T06:23:00;37.10;32.35;39.70;;
46749;Laerm;33775;47.992;11.864;2023-07-20T06:25:26;37.12;32.35;39.81;;
46749;Laerm;33775;47.992;11.864;2023-07-20T06:27:51;37.10;31.68;39.81;;
46749;Laerm;33775;47.992;11.864;2023-07-20T06:30:16;37.11;30.89;39.81;;
46749;Laerm;33775;47.992;11.864;2023-07-20T06:32:42;37.11;32.93;39.70;;
46749;Laerm;33775;47.992;11.864;2023-07-20T06:35:07;37.12;31.68;39.81;;
46749;Laerm;33775;47.992;11.864;2023-07-20T06:37:33;37.06;32.93;39.70;;
46749;Laerm;33775;47.992;11.864;2023-07-20T06:39:58;36.97;32.35;39.81;;
46749;Laerm;33775;47.992;11.864;2023-07-20T06:42:23;36.95;32.35;39.70;;
46749;Laerm;33775;47.992;11.864;2023-07-20T06:44:48;36.97;32.35;39.58;;
46749;Laerm;33775;47.992;11.864;2023-07-20T06:47:14;36.95;30.89;40.23;;
46749;Laerm;33775;47.992;11.864;2023-07-20T06:49:39;36.96;31.68;39.81;;
46749;Laerm;33775;47.992;11.864;2023-07-20T06:52:04;36.97;32.35;39.92;;
46749;Laerm;33775;47.992;11.864;2023-07-20T06:54:29;36.96;32.93;39.46;;
46749;Laerm;33775;47.992;11.864;2023-07-20T06:56:54;36.99;32.35;39.92;;
46749;Laerm;33775;47.992;11.864;2023-07-20T06:59:20;37.00;32.35;40.23;;
46749;Laerm;33775;47.992;11.864;2023-07-20T07:01:46;37.10;32.35;39.92;;
46749;Laerm;33775;47.992;11.864;2023-07-20T07:04:11;37.17;32.35;39.92;;
46749;Laerm;33775;47.992;11.864;2023-07-20T07:06:36;37.20;32.93;40.13;;
46749;Laerm;33775;47.992;11.864;2023-07-20T07:09:02;37.24;33.44;39.81;;
46749;Laerm;33775;47.992;11.864;2023-07-20T07:11:28;37.20;32.93;39.81;;
46749;Laerm;33775;47.992;11.864;2023-07-20T07:13:53;37.21;32.35;39.92;;
46749;Laerm;33775;47.992;11.864;2023-07-20T07:16:19;37.21;33.44;40.03;;
46749;Laerm;33775;47.992;11.864;2023-07-20T07:18:47;37.22;33.44;39.81;;
46749;Laerm;33775;47.992;11.864;2023-07-20T07:21:13;37.28;32.35;40.43;;
46749;Laerm;33775;47.992;11.864;2023-07-20T07:23:38;37.29;32.93;40.13;;
46749;Laerm;33775;47.992;11.864;2023-07-20T07:26:04;37.28;33.09;39.70;;
46749;Laerm;33775;47.992;11.864;2023-07-20T07:28:29;37.28;31.68;40.03;;
46749;Laerm;33775;47.992;11.864;2023-07-20T07:30:54;37.29;32.58;40.03;;
46749;Laerm;33775;47.992;11.864;2023-07-20T07:33:20;37.34;32.93;39.92;;
46749;Laerm;33775;47.992;11.864;2023-07-20T07:35:45;37.29;33.44;40.23;;
46749;Laerm;33775;47.992;11.864;2023-07-20T07:38:10;37.34;32.93;40.03;;
46749;Laerm;33775;47.992;11.864;2023-07-20T07:40:35;37.38;33.44;40.23;;
46749;Laerm;33775;47.992;11.864;2023-07-20T07:43:01;37.38;32.35;40.13;;
46749;Laerm;33775;47.992;11.864;2023-07-20T07:45:26;37.37;33.44;40.23;;
46749;Laerm;33775;47.992;11.864;2023-07-20T07:47:51;37.20;31.68;40.13;;
46749;Laerm;33775;47.992;11.864;2023-07-20T07:50:16;37.13;32.35;39.92;;
46749;Laerm;33775;47.992;11.864;2023-07-20T07:52:41;37.06;30.89;40.23;;
46749;Laerm;33775;47.992;11.864;2023-07-20T07:55:07;37.10;32.35;39.92;;
46749;Laerm;33775;47.992;11.864;2023-07-20T07:57:32;37.11;32.35;39.92;;
46749;Laerm;33775;47.992;11.864;2023-07-20T07:59:57;37.09;32.35;40.03;;
46749;Laerm;33775;47.992;11.864;2023-07-20T08:02:22;37.08;31.68;39.81;;
46749;Laerm;33775;47.992;11.864;2023-07-20T08:04:48;37.14;30.89;39.92;;
46749;Laerm;33775;47.992;11.864;2023-07-20T08:07:14;37.24;32.93;39.81;;
46749;Laerm;33775;47.992;11.864;2023-07-20T08:09:39;37.33;33.44;40.23;;
46749;Laerm;33775;47.992;11.864;2023-07-20T08:12:04;37.41;32.35;40.88;;
46749;Laerm;33775;47.992;11.864;2023-07-20T08:14:30;37.46;33.44;40.03;;
46749;Laerm;33775;47.992;11.864;2023-07-20T08:16:55;37.48;33.90;40.33;;
46749;Laerm;33775;47.992;11.864;2023-07-20T08:19:20;37.53;33.44;40.23;;
46749;Laerm;33775;47.992;11.864;2023-07-20T08:21:45;37.50;32.93;40.33;;
46749;Laerm;33775;47.992;11.864;2023-07-20T08:24:11;37.51;33.44;40.23;;
46749;Laerm;33775;47.992;11.864;2023-07-20T08:26:36;37.54;33.44;39.81;;
46749;Laerm;33775;47.992;11.864;2023-07-20T08:29:01;37.50;33.44;40.71;;
46749;Laerm;33775;47.992;11.864;2023-07-20T08:31:26;37.51;32.93;40.23;;
46749;Laerm;33775;47.992;11.864;2023-07-20T08:33:53;37.50;32.35;40.43;;
46749;Laerm;33775;47.992;11.864;2023-07-20T08:36:18;37.49;32.35;40.13;;
46749;Laerm;33775;47.992;11.864;2023-07-20T08:38:43;37.46;32.35;40.03;;
46749;Laerm;33775;47.992;11.864;2023-07-20T08:41:08;37.49;33.90;40.03;;
46749;Laerm;33775;47.992;11.864;2023-07-20T08:43:34;37.48;33.09;40.71;;
46749;Laerm;33775;47.992;11.864;2023-07-20T08:46:00;37.44;32.35;40.13;;
46749;Laerm;33775;47.992;11.864;2023-07-20T08:48:27;37.44;33.44;40.03;;
46749;Laerm;33775;47.992;11.864;2023-07-20T08:50:52;37.42;32.35;40.33;;
46749;Laerm;33775;47.992;11.864;2023-07-20T08:53:22;37.47;31.68;40.33;;
46749;Laerm;33775;47.992;11.864;2023-07-20T08:55:48;37.45;31.68;40.13;;
46749;Laerm;33775;47.992;11.864;2023-07-20T08:58:14;37.47;33.44;40.43;;
46749;Laerm;33775;47.992;11.864;2023-07-20T09:00:40;37.46;32.35;40.53;;
46749;Laerm;33775;47.992;11.864;2023-07-20T09:03:06;37.53;32.93;40.23;;
46749;Laerm;33775;47.992;11.864;2023-07-20T09:05:31;37.50;33.90;40.13;;
46749;Laerm;33775;47.992;11.864;2023-07-20T09:07:56;37.54;32.93;40.13;;
46749;Laerm;33775;47.992;11.864;2023-07-20T09:10:23;37.55;31.68;40.23;;
46749;Laerm;33775;47.992;11.864;2023-07-20T09:12:48;37.52;33.44;40.03;;
46749;Laerm;33775;47.992;11.864;2023-07-20T09:15:14;37.51;33.44;40.62;;
46749;Laerm;33775;47.992;11.864;2023-07-20T09:17:39;37.50;32.93;40.03;;
46749;Laerm;33775;47.992;11.864;2023-07-20T09:20:09;37.50;32.35;40.23;;
46749;Laerm;33775;47.992;11.864;2023-07-20T09:22:38;37.52;33.90;40.03;;
46749;Laerm;33775;47.992;11.864;2023-07-20T09:25:16;37.51;31.68;40.23;;
46749;Laerm;33775;47.992;11.864;2023-07-20T09:27:45;37.48;32.35;40.53;;
46749;Laerm;33775;47.992;11.864;2023-07-20T09:30:11;37.46;33.44;40.13;;
46749;Laerm;33775;47.992;11.864;2023-07-20T09:32:47;37.47;32.93;40.18;;
46749;Laerm;33775;47.992;11.864;2023-07-20T09:37:38;37.45;31.68;40.23;;
46749;Laerm;33775;47.992;11.864;2023-07-20T09:40:04;37.46;32.35;40.03;;
46749;Laerm;33775;47.992;11.864;2023-07-20T09:42:31;37.46;32.93;40.23;;
46749;Laerm;33775;47.992;11.864;2023-07-20T09:44:56;37.45;32.93;40.03;;
46749;Laerm;33775;47.992;11.864;2023-07-20T09:47:22;37.43;32.93;40.53;;
46749;Laerm;33775;47.992;11.864;2023-07-20T09:49:47;37.40;32.93;40.33;;
46749;Laerm;33775;47.992;11.864;2023-07-20T09:52:13;37.41;32.35;40.33;;
46749;Laerm;33775;47.992;11.864;2023-07-20T09:54:38;37.40;32.93;40.13;;
46749;Laerm;33775;47.992;11.864;2023-07-20T09:57:03;37.42;31.68;40.23;;
46749;Laerm;33775;47.992;11.864;2023-07-20T09:59:31;37.36;32.35;40.23;;
46749;Laerm;33775;47.992;11.864;2023-07-20T10:01:58;37.27;32.35;40.13;;
46749;Laerm;33775;47.992;11.864;2023-07-20T10:04:24;37.27;32.35;40.03;;
46749;Laerm;33775;47.992;11.864;2023-07-20T10:06:50;37.31;31.68;40.23;;
46749;Laerm;33775;47.992;11.864;2023-07-20T10:09:17;37.29;32.35;40.13;;
46749;Laerm;33775;47.992;11.864;2023-07-20T10:11:45;37.31;32.35;40.03;;
46749;Laerm;33775;47.992;11.864;2023-07-20T10:14:11;37.31;32.35;40.13;;
46749;Laerm;33775;47.992;11.864;2023-07-20T10:16:43;37.32;32.35;39.92;;
46749;Laerm;33775;47.992;11.864;2023-07-20T10:21:47;37.36;31.68;40.33;;
46749;Laerm;33775;47.992;11.864;2023-07-20T10:24:12;37.34;32.35;40.33;;
46749;Laerm;33775;47.992;11.864;2023-07-20T10:26:38;37.34;32.35;40.13;;
46749;Laerm;33775;47.992;11.864;2023-07-20T10:29:03;37.33;31.68;40.27;;
46749;Laerm;33775;47.992;11.864;2023-07-20T10:31:29;37.42;31.68;40.62;;
46749;Laerm;33775;47.992;11.864;2023-07-20T10:33:58;37.43;30.89;40.33;;
46749;Laerm;33775;47.992;11.864;2023-07-20T10:36:24;37.48;32.93;40.53;;
46749;Laerm;33775;47.992;11.864;2023-07-20T10:38:54;37.44;32.35;40.23;;
46749;Laerm;33775;47.992;11.864;2023-07-20T10:41:41;37.42;30.89;40.03;;
46749;Laerm;33775;47.992;11.864;2023-07-20T10:44:08;37.40;29.92;40.53;;
46749;Laerm;33775;47.992;11.864;2023-07-20T10:46:44;37.37;29.92;40.43;;
46749;Laerm;33775;47.992;11.864;2023-07-20T10:49:10;37.38;31.68;40.13;;
46749;Laerm;33775;47.992;11.864;2023-07-20T10:51:43;37.33;32.93;40.13;;
46749;Laerm;33775;47.992;11.864;2023-07-20T10:54:09;37.35;32.35;40.23;;
46749;Laerm;33775;47.992;11.864;2023-07-20T10:56:34;37.34;32.35;40.13;;
46749;Laerm;33775;47.992;11.864;2023-07-20T10:59:00;37.24;30.89;40.13;;
46749;Laerm;33775;47.992;11.864;2023-07-20T11:01:28;37.23;31.68;39.81;;
46749;Laerm;33775;47.992;11.864;2023-07-20T11:03:57;37.20;31.68;40.33;;
46749;Laerm;33775;47.992;11.864;2023-07-20T11:11:31;37.17;30.89;39.92;;
46749;Laerm;33775;47.992;11.864;2023-07-20T11:13:58;37.19;30.54;40.23;;
46749;Laerm;33775;47.992;11.864;2023-07-20T11:16:43;37.18;32.35;40.13;;
46749;Laerm;33775;47.992;11.864;2023-07-20T11:19:18;37.25;32.35;40.23;;
46749;Laerm;33775;47.992;11.864;2023-07-20T11:21:44;37.24;31.68;40.13;;
46749;Laerm;33775;47.992;11.864;2023-07-20T11:24:09;37.29;30.89;40.23;;
46749;Laerm;33775;47.992;11.864;2023-07-20T11:26:40;37.21;31.68;39.92;;
46749;Laerm;33775;47.992;11.864;2023-07-20T11:29:06;37.22;30.89;40.23;;
46749;Laerm;33775;47.992;11.864;2023-07-20T11:31:34;37.22;32.35;40.89;;
46749;Laerm;33775;47.992;11.864;2023-07-20T11:33:59;37.24;31.33;40.43;;
46749;Laerm;33775;47.992;11.864;2023-07-20T11:36:25;37.26;32.35;40.23;;
46749;Laerm;33775;47.992;11.864;2023-07-20T11:38:50;37.25;31.68;40.03;;
46749;Laerm;33775;47.992;11.864;2023-07-20T11:41:16;37.27;32.35;40.23;;
46749;Laerm;33775;47.992;11.864;2023-07-20T11:43:41;37.24;32.35;39.92;;
46749;Laerm;33775;47.992;11.864;2023-07-20T11:46:07;37.25;32.35;40.33;;
46749;Laerm;33775;47.992;11.864;2023-07-20T11:48:32;37.28;32.35;40.23;;
46749;Laerm;33775;47.992;11.864;2023-07-20T11:50:57;37.28;32.35;40.13;;
46749;Laerm;33775;47.992;11.864;2023-07-20T11:53:24;37.25;32.35;40.03;;
46749;Laerm;33775;47.992;11.864;2023-07-20T11:55:49;37.38;30.89;40.43;;
46749;Laerm;33775;47.992;11.864;2023-07-20T11:58:14;37.28;32.35;40.53;;
46749;Laerm;33775;47.992;11.864;2023-07-20T12:00:41;37.25;31.68;40.13;;
46749;Laerm;33775;47.992;11.864;2023-07-20T12:03:09;37.29;31.68;40.33;;
46749;Laerm;33775;47.992;11.864;2023-07-20T12:05:35;37.31;30.89;39.92;;
46749;Laerm;33775;47.992;11.864;2023-07-20T12:08:01;37.28;31.68;40.43;;
46749;Laerm;33775;47.992;11.864;2023-07-20T12:10:27;37.30;32.93;40.03;;
46749;Laerm;33775;47.992;11.864;2023-07-20T12:12:53;37.40;31.68;40.23;;
46749;Laerm;33775;47.992;11.864;2023-07-20T12:15:22;37.30;32.93;40.13;;
46749;Laerm;33775;47.992;11.864;2023-07-20T12:17:54;37.35;32.35;40.23;;
46749;Laerm;33775;47.992;11.864;2023-07-20T12:20:26;37.42;32.35;40.62;;
46749;Laerm;33775;47.992;11.864;2023-07-20T12:22:52;37.40;32.35;40.27;;
46749;Laerm;33775;47.992;11.864;2023-07-20T12:25:17;37.36;32.35;40.23;;
46749;Laerm;33775;47.992;11.864;2023-07-20T12:27:45;37.34;30.89;40.23;;
46749;Laerm;33775;47.992;11.864;2023-07-20T12:30:10;37.33;32.35;40.03;;
46749;Laerm;33775;47.992;11.864;2023-07-20T12:32:35;37.34;32.93;40.33;;
46749;Laerm;33775;47.992;11.864;2023-07-20T12:35:00;37.27;31.68;40.03;;
46749;Laerm;33775;47.992;11.864;2023-07-20T12:37:26;37.32;32.35;40.23;;
46749;Laerm;33775;47.992;11.864;2023-07-20T12:39:51;37.29;31.68;40.13;;
46749;Laerm;33775;47.992;11.864;2023-07-20T12:42:16;37.23;32.35;40.03;;
46749;Laerm;33775;47.992;11.864;2023-07-20T12:44:42;37.29;31.68;40.71;;
46749;Laerm;33775;47.992;11.864;2023-07-20T12:47:07;37.15;30.89;39.81;;
46749;Laerm;33775;47.992;11.864;2023-07-20T12:49:32;37.15;31.68;40.33;;
46749;Laerm;33775;47.992;11.864;2023-07-20T12:51:58;37.22;31.68;40.33;;
46749;Laerm;33775;47.992;11.864;2023-07-20T12:54:23;37.24;30.89;40.03;;
46749;Laerm;33775;47.992;11.864;2023-07-20T12:56:48;37.27;31.68;39.92;;
46749;Laerm;33775;47.992;11.864;2023-07-20T12:59:13;37.29;32.35;40.33;;
46749;Laerm;33775;47.992;11.864;2023-07-20T13:01:39;37.35;32.93;40.33;;
46749;Laerm;33775;47.992;11.864;2023-07-20T13:04:06;37.29;26.91;43.29;;
46749;Laerm;33775;47.992;11.864;2023-07-20T13:06:34;37.28;31.68;42.47;;
46749;Laerm;33775;47.992;11.864;2023-07-20T13:08:59;37.23;32.35;40.13;;
46749;Laerm;33775;47.992;11.864;2023-07-20T13:11:24;37.23;32.35;40.03;;
46749;Laerm;33775;47.992;11.864;2023-07-20T13:13:50;37.19;32.35;40.13;;
46749;Laerm;33775;47.992;11.864;2023-07-20T13:16:15;37.17;32.35;40.13;;
46749;Laerm;33775;47.992;11.864;2023-07-20T13:18:40;37.16;31.68;40.13;;
46749;Laerm;33775;47.992;11.864;2023-07-20T13:21:05;37.16;32.35;40.18;;
46749;Laerm;33775;47.992;11.864;2023-07-20T13:23:36;37.16;31.68;40.13;;
46749;Laerm;33775;47.992;11.864;2023-07-20T13:26:01;37.16;29.92;40.13;;
46749;Laerm;33775;47.992;11.864;2023-07-20T13:28:27;37.15;32.35;40.43;;
46749;Laerm;33775;47.992;11.864;2023-07-20T13:30:52;37.15;32.35;40.03;;
46749;Laerm;33775;47.992;11.864;2023-07-20T13:33:17;37.16;29.92;40.03;;
46749;Laerm;33775;47.992;11.864;2023-07-20T13:35:42;37.15;31.68;39.92;;
46749;Laerm;33775;47.992;11.864;2023-07-20T13:38:07;37.15;31.68;40.33;;